SAS4616 EGPD-ENZV
Flight info
| Callsign | SAS4616 |
|---|---|
| Flight time | 0h 48m |
| Altitude | 39000 |
| Route | ADN P600 LESNI P600 BUDON/N0455F390 DCT KLONN DCT KUNEM |
| Aircraft | B736/M-SDE2E3FGHIRWXY/LB1 |
Departure
| Time | 2026-04-28 14:10 |
|---|---|
| Airport | Aberdeen International Airport (EGPD) |
Arrival
| Time | 2026-04-28 14:58 |
|---|---|
| Airport | Stavanger Airport, Sola (ENZV) |
| Time | Latitude | Longitude | Altitude | Speed | Heading |
|---|---|---|---|---|---|
| 2026-04-28 12:58 | 57.20028 | -2.20229 | 246 ft | 0 kts | 249° |
| 2026-04-28 14:03 | 57.20036 | -2.20194 | 246 ft | 4 kts | 248° |
| 2026-04-28 14:03 | 57.20044 | -2.20157 | 246 ft | 4 kts | 252° |
| 2026-04-28 14:03 | 57.20044 | -2.20115 | 246 ft | 4 kts | 311° |
| 2026-04-28 14:04 | 57.20026 | -2.20094 | 246 ft | 2 kts | 338° |
| 2026-04-28 14:04 | 57.20025 | -2.20093 | 246 ft | 1 kts | 338° |
| 2026-04-28 14:06 | 57.20026 | -2.20094 | 246 ft | 1 kts | 338° |
| 2026-04-28 14:06 | 57.20088 | -2.20139 | 246 ft | 15 kts | 337° |
| 2026-04-28 14:06 | 57.20194 | -2.20218 | 246 ft | 18 kts | 338° |
| 2026-04-28 14:06 | 57.20313 | -2.20307 | 246 ft | 19 kts | 338° |
| 2026-04-28 14:07 | 57.20428 | -2.20392 | 246 ft | 15 kts | 340° |
| 2026-04-28 14:07 | 57.20521 | -2.20351 | 246 ft | 14 kts | 342° |
| 2026-04-28 14:07 | 57.20617 | -2.20420 | 246 ft | 17 kts | 338° |
| 2026-04-28 14:07 | 57.20744 | -2.20514 | 246 ft | 22 kts | 338° |
| 2026-04-28 14:08 | 57.20866 | -2.20604 | 246 ft | 16 kts | 338° |
| 2026-04-28 14:08 | 57.20966 | -2.20675 | 246 ft | 14 kts | 347° |
| 2026-04-28 14:08 | 57.21019 | -2.20552 | 246 ft | 13 kts | 69° |
| 2026-04-28 14:08 | 57.21041 | -2.20446 | 247 ft | 10 kts | 70° |
| 2026-04-28 14:09 | 57.20982 | -2.20356 | 246 ft | 13 kts | 158° |
| 2026-04-28 14:09 | 57.20693 | -2.20144 | 246 ft | 81 kts | 158° |
| 2026-04-28 14:09 | 57.19977 | -2.19612 | 253 ft | 139 kts | 158° |
| 2026-04-28 14:09 | 57.19035 | -2.18914 | 792 ft | 143 kts | 156° |
| 2026-04-28 14:10 | 57.18134 | -2.18323 | 1618 ft | 135 kts | 159° |
| 2026-04-28 14:10 | 57.17555 | -2.17748 | 1938 ft | 150 kts | 135° |
| 2026-04-28 14:10 | 57.17179 | -2.15826 | 2247 ft | 181 kts | 82° |
| 2026-04-28 14:10 | 57.17762 | -2.13634 | 2543 ft | 211 kts | 45° |
| 2026-04-28 14:11 | 57.19146 | -2.12425 | 2952 ft | 234 kts | 4° |
| 2026-04-28 14:11 | 57.20718 | -2.13163 | 3759 ft | 240 kts | 329° |
| 2026-04-28 14:11 | 57.22246 | -2.14359 | 4619 ft | 243 kts | 356° |
| 2026-04-28 14:11 | 57.23869 | -2.13674 | 5458 ft | 246 kts | 29° |
| 2026-04-28 14:12 | 57.25174 | -2.11511 | 6051 ft | 260 kts | 52° |
| 2026-04-28 14:12 | 57.26231 | -2.08744 | 6877 ft | 266 kts | 57° |
| 2026-04-28 14:12 | 57.27230 | -2.05865 | 7890 ft | 264 kts | 57° |
| 2026-04-28 14:12 | 57.28213 | -2.02985 | 8885 ft | 267 kts | 57° |
| 2026-04-28 14:13 | 57.29213 | -2.00056 | 9856 ft | 271 kts | 57° |
| 2026-04-28 14:13 | 57.30226 | -1.97105 | 10899 ft | 272 kts | 57° |
| 2026-04-28 14:13 | 57.31243 | -1.94156 | 11924 ft | 273 kts | 56° |
| 2026-04-28 14:13 | 57.32273 | -1.91184 | 12926 ft | 276 kts | 56° |
| 2026-04-28 14:14 | 57.33315 | -1.88181 | 13954 ft | 279 kts | 55° |
| 2026-04-28 14:14 | 57.34370 | -1.85147 | 14921 ft | 282 kts | 55° |
| 2026-04-28 14:14 | 57.35432 | -1.82091 | 15884 ft | 283 kts | 55° |
| 2026-04-28 14:14 | 57.36500 | -1.79018 | 16858 ft | 285 kts | 55° |
| 2026-04-28 14:15 | 57.37579 | -1.75913 | 17837 ft | 288 kts | 54° |
| 2026-04-28 14:15 | 57.38655 | -1.72814 | 18763 ft | 292 kts | 54° |
| 2026-04-28 14:15 | 57.39772 | -1.69594 | 19616 ft | 295 kts | 54° |
| 2026-04-28 14:15 | 57.40875 | -1.66409 | 20426 ft | 299 kts | 54° |
| 2026-04-28 14:16 | 57.42005 | -1.63143 | 21237 ft | 303 kts | 54° |
| 2026-04-28 14:16 | 57.43153 | -1.59820 | 22051 ft | 308 kts | 54° |
| 2026-04-28 14:16 | 57.44315 | -1.56453 | 22870 ft | 312 kts | 55° |
| 2026-04-28 14:16 | 57.45492 | -1.53036 | 23700 ft | 317 kts | 55° |
| 2026-04-28 14:17 | 57.46685 | -1.49566 | 24454 ft | 321 kts | 55° |
| 2026-04-28 14:17 | 57.47896 | -1.46040 | 25151 ft | 326 kts | 55° |
| 2026-04-28 14:17 | 57.49125 | -1.42456 | 25762 ft | 334 kts | 55° |
| 2026-04-28 14:17 | 57.50416 | -1.38694 | 25884 ft | 356 kts | 55° |
| 2026-04-28 14:18 | 57.51783 | -1.34702 | 26000 ft | 375 kts | 55° |
| 2026-04-28 14:18 | 57.53215 | -1.30508 | 26120 ft | 393 kts | 55° |
| 2026-04-28 14:18 | 57.54632 | -1.26073 | 26408 ft | 405 kts | 61° |
| 2026-04-28 14:18 | 57.55795 | -1.21257 | 26924 ft | 410 kts | 64° |
| 2026-04-28 14:19 | 57.56897 | -1.16344 | 27542 ft | 412 kts | 64° |
| 2026-04-28 14:19 | 57.57987 | -1.11395 | 28110 ft | 414 kts | 64° |
| 2026-04-28 14:19 | 57.59088 | -1.06396 | 28595 ft | 419 kts | 64° |
| 2026-04-28 14:19 | 57.60203 | -1.01353 | 29053 ft | 423 kts | 64° |
| 2026-04-28 14:20 | 57.61332 | -0.96268 | 29519 ft | 427 kts | 64° |
| 2026-04-28 14:20 | 57.62460 | -0.91205 | 29980 ft | 430 kts | 64° |
| 2026-04-28 14:20 | 57.63613 | -0.86033 | 30419 ft | 433 kts | 64° |
| 2026-04-28 14:20 | 57.64775 | -0.80822 | 30819 ft | 437 kts | 64° |
| 2026-04-28 14:21 | 57.65946 | -0.75561 | 31147 ft | 440 kts | 64° |
| 2026-04-28 14:21 | 57.67125 | -0.70251 | 31542 ft | 442 kts | 64° |
| 2026-04-28 14:21 | 57.68296 | -0.64958 | 32123 ft | 439 kts | 64° |
| 2026-04-28 14:21 | 57.69454 | -0.59708 | 32756 ft | 435 kts | 64° |
| 2026-04-28 14:22 | 57.70603 | -0.54487 | 33277 ft | 434 kts | 64° |
| 2026-04-28 14:22 | 57.71749 | -0.49274 | 33721 ft | 434 kts | 64° |
| 2026-04-28 14:22 | 57.72894 | -0.44053 | 34164 ft | 433 kts | 64° |
| 2026-04-28 14:22 | 57.74036 | -0.38832 | 34641 ft | 432 kts | 64° |
| 2026-04-28 14:23 | 57.75167 | -0.33645 | 35075 ft | 430 kts | 64° |
| 2026-04-28 14:23 | 57.76292 | -0.28474 | 35515 ft | 427 kts | 64° |
| 2026-04-28 14:23 | 57.77406 | -0.23337 | 35951 ft | 425 kts | 64° |
| 2026-04-28 14:23 | 57.78515 | -0.18215 | 36344 ft | 423 kts | 64° |
| 2026-04-28 14:24 | 57.79620 | -0.13098 | 36732 ft | 422 kts | 64° |
| 2026-04-28 14:24 | 57.80716 | -0.08012 | 37122 ft | 420 kts | 64° |
| 2026-04-28 14:24 | 57.81804 | -0.02947 | 37513 ft | 418 kts | 64° |
| 2026-04-28 14:24 | 57.82876 | 0.02051 | 37937 ft | 416 kts | 64° |
| 2026-04-28 14:25 | 57.83959 | 0.07120 | 38454 ft | 411 kts | 64° |
| 2026-04-28 14:25 | 57.85003 | 0.12015 | 38857 ft | 409 kts | 64° |
| 2026-04-28 14:25 | 57.86056 | 0.16964 | 39149 ft | 409 kts | 64° |
| 2026-04-28 14:25 | 57.87112 | 0.21931 | 39378 ft | 409 kts | 64° |
| 2026-04-28 14:26 | 57.88167 | 0.26907 | 39534 ft | 411 kts | 64° |
| 2026-04-28 14:26 | 57.89231 | 0.31933 | 39541 ft | 416 kts | 64° |
| 2026-04-28 14:26 | 57.91383 | 0.42143 | 39560 ft | 423 kts | 64° |
| 2026-04-28 14:27 | 57.93541 | 0.52452 | 39543 ft | 424 kts | 64° |
| 2026-04-28 14:27 | 57.95699 | 0.62816 | 39574 ft | 426 kts | 64° |
| 2026-04-28 14:28 | 57.97851 | 0.73198 | 39558 ft | 425 kts | 64° |
| 2026-04-28 14:28 | 57.99993 | 0.83587 | 39548 ft | 425 kts | 64° |
| 2026-04-28 14:29 | 58.02123 | 0.93969 | 39548 ft | 423 kts | 64° |
| 2026-04-28 14:29 | 58.04238 | 1.04330 | 39547 ft | 423 kts | 64° |
| 2026-04-28 14:30 | 58.06340 | 1.14680 | 39548 ft | 422 kts | 64° |
| 2026-04-28 14:30 | 58.08431 | 1.25030 | 39569 ft | 421 kts | 64° |
| 2026-04-28 14:31 | 58.10499 | 1.35318 | 39548 ft | 421 kts | 64° |
| 2026-04-28 14:31 | 58.12569 | 1.45672 | 39543 ft | 420 kts | 64° |
| 2026-04-28 14:32 | 58.14628 | 1.56022 | 39539 ft | 420 kts | 64° |
| 2026-04-28 14:32 | 58.16678 | 1.66381 | 39539 ft | 420 kts | 64° |
| 2026-04-28 14:33 | 58.18717 | 1.76739 | 39534 ft | 419 kts | 65° |
| 2026-04-28 14:33 | 58.20750 | 1.87122 | 39554 ft | 420 kts | 64° |
| 2026-04-28 14:34 | 58.23790 | 2.02752 | 39541 ft | 421 kts | 64° |
| 2026-04-28 14:35 | 58.25795 | 2.13130 | 39535 ft | 421 kts | 64° |
| 2026-04-28 14:35 | 58.27806 | 2.23592 | 39538 ft | 422 kts | 64° |
| 2026-04-28 14:36 | 58.29809 | 2.34071 | 39537 ft | 422 kts | 65° |
| 2026-04-28 14:36 | 58.31802 | 2.44557 | 39540 ft | 422 kts | 65° |
| 2026-04-28 14:37 | 58.33790 | 2.55068 | 39546 ft | 422 kts | 64° |
| 2026-04-28 14:37 | 58.35767 | 2.65580 | 39537 ft | 422 kts | 65° |
| 2026-04-28 14:38 | 58.37736 | 2.76097 | 39536 ft | 421 kts | 65° |
| 2026-04-28 14:38 | 58.39671 | 2.86655 | 39536 ft | 422 kts | 66° |
| 2026-04-28 14:39 | 58.41444 | 2.97339 | 39356 ft | 424 kts | 67° |
| 2026-04-28 14:39 | 58.42311 | 3.02699 | 38841 ft | 419 kts | 67° |
| 2026-04-28 14:39 | 58.43168 | 3.08012 | 38010 ft | 418 kts | 66° |
| 2026-04-28 14:39 | 58.44022 | 3.13292 | 37275 ft | 416 kts | 66° |
| 2026-04-28 14:40 | 58.44876 | 3.18557 | 36507 ft | 415 kts | 66° |
| 2026-04-28 14:40 | 58.45443 | 3.22051 | 35952 ft | 416 kts | 66° |
| 2026-04-28 14:40 | 58.46593 | 3.29129 | 34810 ft | 418 kts | 66° |
| 2026-04-28 14:40 | 58.47453 | 3.34466 | 33812 ft | 422 kts | 67° |
| 2026-04-28 14:41 | 58.48199 | 3.39937 | 32697 ft | 429 kts | 70° |
| 2026-04-28 14:41 | 58.48848 | 3.45518 | 31660 ft | 432 kts | 72° |
| 2026-04-28 14:41 | 58.49460 | 3.51149 | 30656 ft | 433 kts | 72° |
| 2026-04-28 14:41 | 58.50065 | 3.56795 | 29509 ft | 434 kts | 72° |
| 2026-04-28 14:42 | 58.50677 | 3.62448 | 28396 ft | 434 kts | 72° |
| 2026-04-28 14:42 | 58.51297 | 3.68090 | 27325 ft | 433 kts | 72° |
| 2026-04-28 14:42 | 58.51922 | 3.73717 | 26298 ft | 434 kts | 72° |
| 2026-04-28 14:42 | 58.52554 | 3.79368 | 25366 ft | 434 kts | 72° |
| 2026-04-28 14:43 | 58.53185 | 3.85010 | 24443 ft | 432 kts | 72° |
| 2026-04-28 14:43 | 58.53802 | 3.90545 | 23452 ft | 429 kts | 73° |
| 2026-04-28 14:43 | 58.54418 | 3.96095 | 22483 ft | 423 kts | 73° |
| 2026-04-28 14:43 | 58.55022 | 4.01564 | 21545 ft | 416 kts | 73° |
| 2026-04-28 14:44 | 58.55612 | 4.06919 | 20651 ft | 410 kts | 73° |
| 2026-04-28 14:44 | 58.56198 | 4.12257 | 19759 ft | 405 kts | 73° |
| 2026-04-28 14:44 | 58.56772 | 4.17510 | 18915 ft | 400 kts | 73° |
| 2026-04-28 14:44 | 58.57339 | 4.22704 | 17965 ft | 396 kts | 73° |
| 2026-04-28 14:45 | 58.57897 | 4.27848 | 17026 ft | 392 kts | 73° |
| 2026-04-28 14:45 | 58.58448 | 4.32943 | 16116 ft | 389 kts | 73° |
| 2026-04-28 14:45 | 58.58993 | 4.37999 | 15226 ft | 385 kts | 73° |
| 2026-04-28 14:45 | 58.59530 | 4.43005 | 14397 ft | 383 kts | 74° |
| 2026-04-28 14:46 | 58.60064 | 4.47993 | 13445 ft | 380 kts | 74° |
| 2026-04-28 14:46 | 58.60592 | 4.52950 | 12528 ft | 378 kts | 75° |
| 2026-04-28 14:46 | 58.61114 | 4.57871 | 11693 ft | 374 kts | 75° |
| 2026-04-28 14:46 | 58.61628 | 4.62740 | 11013 ft | 368 kts | 76° |
| 2026-04-28 14:47 | 58.62121 | 4.67443 | 10812 ft | 350 kts | 76° |
| 2026-04-28 14:47 | 58.62586 | 4.71907 | 10674 ft | 334 kts | 76° |
| 2026-04-28 14:47 | 58.63039 | 4.76252 | 10553 ft | 331 kts | 76° |
| 2026-04-28 14:47 | 58.63493 | 4.80596 | 10215 ft | 333 kts | 76° |
| 2026-04-28 14:48 | 58.63946 | 4.84948 | 9815 ft | 333 kts | 76° |
| 2026-04-28 14:48 | 58.64396 | 4.89298 | 9415 ft | 331 kts | 76° |
| 2026-04-28 14:48 | 58.64840 | 4.93606 | 9023 ft | 327 kts | 76° |
| 2026-04-28 14:48 | 58.65276 | 4.97861 | 8636 ft | 322 kts | 76° |
| 2026-04-28 14:49 | 58.65703 | 5.02045 | 8255 ft | 316 kts | 76° |
| 2026-04-28 14:49 | 58.66118 | 5.06129 | 7868 ft | 308 kts | 76° |
| 2026-04-28 14:49 | 58.66524 | 5.10125 | 7494 ft | 302 kts | 76° |
| 2026-04-28 14:49 | 58.66923 | 5.14064 | 7007 ft | 300 kts | 76° |
| 2026-04-28 14:50 | 58.67313 | 5.17938 | 6460 ft | 289 kts | 76° |
| 2026-04-28 14:50 | 58.67688 | 5.21671 | 5927 ft | 280 kts | 77° |
| 2026-04-28 14:50 | 58.68052 | 5.25299 | 5430 ft | 273 kts | 77° |
| 2026-04-28 14:50 | 58.68400 | 5.28781 | 4962 ft | 265 kts | 76° |
| 2026-04-28 14:51 | 58.68743 | 5.32215 | 4488 ft | 259 kts | 77° |
| 2026-04-28 14:51 | 58.69077 | 5.35572 | 4025 ft | 253 kts | 76° |
| 2026-04-28 14:51 | 58.69403 | 5.38845 | 3611 ft | 247 kts | 76° |
| 2026-04-28 14:51 | 58.69717 | 5.42018 | 3266 ft | 234 kts | 77° |
| 2026-04-28 14:52 | 58.70015 | 5.45044 | 3010 ft | 227 kts | 78° |
| 2026-04-28 14:52 | 58.70307 | 5.47999 | 2820 ft | 225 kts | 77° |
| 2026-04-28 14:52 | 58.70600 | 5.50977 | 2724 ft | 227 kts | 77° |
| 2026-04-28 14:52 | 58.71024 | 5.53839 | 2697 ft | 215 kts | 66° |
| 2026-04-28 14:53 | 58.71553 | 5.56413 | 2692 ft | 202 kts | 66° |
| 2026-04-28 14:53 | 58.72061 | 5.58905 | 2697 ft | 201 kts | 66° |
| 2026-04-28 14:53 | 58.72580 | 5.61415 | 2688 ft | 203 kts | 65° |
| 2026-04-28 14:53 | 58.73357 | 5.63637 | 2688 ft | 199 kts | 33° |
| 2026-04-28 14:54 | 58.74614 | 5.64282 | 2575 ft | 183 kts | 353° |
| 2026-04-28 14:54 | 58.75835 | 5.64027 | 2341 ft | 172 kts | 359° |
| 2026-04-28 14:54 | 58.76981 | 5.64075 | 2105 ft | 157 kts | 358° |
| 2026-04-28 14:54 | 58.78054 | 5.64068 | 1910 ft | 156 kts | 358° |
| 2026-04-28 14:55 | 58.79134 | 5.64042 | 1684 ft | 153 kts | 356° |
| 2026-04-28 14:55 | 58.80190 | 5.64009 | 1488 ft | 152 kts | 357° |
| 2026-04-28 14:55 | 58.81239 | 5.63978 | 1290 ft | 144 kts | 356° |
| 2026-04-28 14:55 | 58.82182 | 5.63952 | 1068 ft | 129 kts | 355° |
| 2026-04-28 14:56 | 58.82760 | 5.63934 | 942 ft | 124 kts | 355° |
| 2026-04-28 14:56 | 58.83604 | 5.63908 | 779 ft | 120 kts | 355° |
| 2026-04-28 14:56 | 58.84455 | 5.63878 | 622 ft | 123 kts | 353° |
| 2026-04-28 14:56 | 58.85332 | 5.63845 | 422 ft | 128 kts | 353° |
| 2026-04-28 14:57 | 58.86227 | 5.63823 | 253 ft | 128 kts | 354° |
| 2026-04-28 14:57 | 58.87098 | 5.63808 | 68 ft | 122 kts | 353° |
| 2026-04-28 14:57 | 58.87883 | 5.63770 | 32 ft | 100 kts | 357° |
| 2026-04-28 14:57 | 58.88487 | 5.63760 | 29 ft | 51 kts | 360° |
| 2026-04-28 14:58 | 58.88691 | 5.63737 | 27 ft | 16 kts | 328° |
| 2026-04-28 14:58 | 58.88708 | 5.63553 | 30 ft | 10 kts | 269° |
| 2026-04-28 14:58 | 58.88693 | 5.63438 | 29 ft | 10 kts | 216° |
| 2026-04-28 14:58 | 58.88635 | 5.63420 | 30 ft | 5 kts | 179° |
| 2026-04-28 14:59 | 58.88595 | 5.63421 | 30 ft | 5 kts | 178° |
| 2026-04-28 14:59 | 58.88560 | 5.63422 | 30 ft | 3 kts | 180° |
| 2026-04-28 14:59 | 58.88543 | 5.63422 | 30 ft | 3 kts | 181° |
| 2026-04-28 14:59 | 58.88521 | 5.63422 | 30 ft | 4 kts | 179° |
| 2026-04-28 15:00 | 58.88514 | 5.63422 | 30 ft | 0 kts | 179° |
| 2026-04-28 15:00 | 58.88508 | 5.63422 | 30 ft | 2 kts | 179° |
| 2026-04-28 15:00 | 58.88478 | 5.63423 | 30 ft | 8 kts | 180° |
| 2026-04-28 15:01 | 58.88412 | 5.63426 | 28 ft | 11 kts | 179° |
| 2026-04-28 15:01 | 58.88326 | 5.63427 | 30 ft | 14 kts | 180° |
| 2026-04-28 15:01 | 58.88230 | 5.63430 | 29 ft | 14 kts | 179° |
| 2026-04-28 15:01 | 58.88137 | 5.63434 | 29 ft | 13 kts | 178° |
| 2026-04-28 15:02 | 58.88047 | 5.63438 | 29 ft | 13 kts | 178° |
| 2026-04-28 15:02 | 58.87996 | 5.63411 | 28 ft | 4 kts | 208° |
| 2026-04-28 15:02 | 58.87990 | 5.63357 | 30 ft | 8 kts | 288° |
| 2026-04-28 15:02 | 58.88035 | 5.63229 | 28 ft | 13 kts | 307° |
| 2026-04-28 15:03 | 58.88023 | 5.63081 | 26 ft | 12 kts | 230° |
| 2026-04-28 15:03 | 58.87989 | 5.62936 | 26 ft | 12 kts | 258° |
| 2026-04-28 15:03 | 58.87995 | 5.62783 | 25 ft | 11 kts | 285° |
| 2026-04-28 15:03 | 58.88015 | 5.62646 | 24 ft | 10 kts | 286° |
| 2026-04-28 15:04 | 58.88050 | 5.62534 | 25 ft | 8 kts | 325° |
| 2026-04-28 15:04 | 58.88083 | 5.62576 | 24 ft | 5 kts | 57° |
| 2026-04-28 15:04 | 58.88087 | 5.62587 | 23 ft | 0 kts | 57° |